createdAt,value
2018-05-11T00:00:27.035Z,88.50
2018-05-11T00:02:54.643Z,88.40
2018-05-11T00:05:22.297Z,89.30
2018-05-11T00:07:49.954Z,89.90
2018-05-11T00:10:17.605Z,89.50
2018-05-11T00:12:45.207Z,90.00
2018-05-11T00:15:13.639Z,89.80
2018-05-11T00:17:41.242Z,89.50
2018-05-11T00:20:09.979Z,90.30
2018-05-11T00:22:37.567Z,90.20
2018-05-11T00:25:05.196Z,90.10
2018-05-11T00:27:32.845Z,89.50
2018-05-11T00:30:00.463Z,89.30
2018-05-11T00:32:28.824Z,89.00
2018-05-11T00:34:56.482Z,88.90
2018-05-11T00:37:24.390Z,90.10
2018-05-11T00:39:52.006Z,90.20
2018-05-11T00:42:19.626Z,89.30
2018-05-11T00:44:48.062Z,90.20
2018-05-11T00:47:15.683Z,90.20
2018-05-11T00:49:43.311Z,90.40
2018-05-11T00:52:11.004Z,90.00
2018-05-11T00:54:38.596Z,90.40
2018-05-11T00:57:06.296Z,90.50
2018-05-11T00:59:33.890Z,90.30
2018-05-11T01:02:01.565Z,90.50
2018-05-11T01:04:29.153Z,90.60
2018-05-11T01:06:56.779Z,90.40
2018-05-11T01:09:24.362Z,89.90
2018-05-11T01:11:52.357Z,90.00
2018-05-11T01:14:19.977Z,90.00
2018-05-11T01:16:47.586Z,90.40
2018-05-11T01:19:15.170Z,90.30
2018-05-11T01:21:42.792Z,89.80
2018-05-11T01:24:10.484Z,89.60
2018-05-11T01:26:38.854Z,90.00
2018-05-11T01:29:07.238Z,90.10
2018-05-11T01:31:35.638Z,90.50
2018-05-11T01:34:03.191Z,90.40
2018-05-11T01:36:30.737Z,90.60
2018-05-11T01:38:59.067Z,90.60
2018-05-11T01:41:26.644Z,90.60
2018-05-11T01:43:54.250Z,90.70
2018-05-11T01:46:22.553Z,91.10
2018-05-11T01:48:50.232Z,91.10
2018-05-11T01:51:18.577Z,90.80
2018-05-11T01:53:46.126Z,90.80
2018-05-11T01:56:13.708Z,90.90
2018-05-11T01:58:41.331Z,90.90
2018-05-11T02:01:08.899Z,90.90
2018-05-11T02:03:37.243Z,91.10
2018-05-11T02:06:05.607Z,91.10
2018-05-11T02:08:34.024Z,91.10
2018-05-11T02:11:01.619Z,91.10
2018-05-11T02:13:29.935Z,91.00
2018-05-11T02:15:57.488Z,91.00
2018-05-11T02:18:25.130Z,91.00
2018-05-11T02:20:52.750Z,91.00
2018-05-11T02:23:21.072Z,91.30
2018-05-11T02:25:48.718Z,91.30
2018-05-11T02:28:17.085Z,91.10
2018-05-11T02:30:44.682Z,91.10
2018-05-11T02:33:12.294Z,91.10
2018-05-11T02:35:40.653Z,90.90
2018-05-11T02:38:08.217Z,90.80
2018-05-11T02:40:35.749Z,90.80
2018-05-11T02:43:03.359Z,90.90
2018-05-11T02:45:30.898Z,91.20
2018-05-11T02:47:59.275Z,91.00
2018-05-11T02:50:26.895Z,91.00
2018-05-11T02:52:54.517Z,91.00
2018-05-11T02:55:22.928Z,91.30
2018-05-11T02:57:50.601Z,91.20
2018-05-11T03:00:18.252Z,91.00
2018-05-11T03:02:46.627Z,91.10
2018-05-11T03:05:14.215Z,91.10
2018-05-11T03:07:41.841Z,91.00
2018-05-11T03:10:09.536Z,90.70
2018-05-11T03:12:37.070Z,91.10
2018-05-11T03:15:04.717Z,91.10
2018-05-11T03:17:32.514Z,91.30
2018-05-11T03:20:01.109Z,90.50
2018-05-11T03:22:28.646Z,90.50
2018-05-11T03:24:56.279Z,90.70
2018-05-11T03:27:24.582Z,91.50
2018-05-11T03:29:52.221Z,91.40
2018-05-11T03:32:19.792Z,91.70
2018-05-11T03:34:47.332Z,90.90
2018-05-11T03:37:15.683Z,90.90
2018-05-11T03:39:43.273Z,90.90
2018-05-11T03:42:11.662Z,91.60
2018-05-11T03:44:39.288Z,91.60
2018-05-11T03:47:06.856Z,91.70
2018-05-11T03:49:34.460Z,90.90
2018-05-11T03:52:02.831Z,90.90
2018-05-11T03:54:30.467Z,90.90
2018-05-11T03:56:58.813Z,90.60
2018-05-11T03:59:26.464Z,90.60
2018-05-11T04:02:05.624Z,90.90
2018-05-11T04:07:45.071Z,90.90
2018-05-11T04:10:12.631Z,91.00
2018-05-11T04:12:40.271Z,91.30
2018-05-11T04:15:07.866Z,91.40
2018-05-11T04:17:35.433Z,91.50
2018-05-11T04:20:03.791Z,91.20
2018-05-11T04:22:31.381Z,91.10
2018-05-11T04:24:58.990Z,91.60
2018-05-11T04:27:26.549Z,91.60
2018-05-11T04:29:55.038Z,91.50
2018-05-11T04:32:22.683Z,91.70
2018-05-11T04:34:50.271Z,91.80
2018-05-11T04:37:17.924Z,91.80
2018-05-11T04:39:45.415Z,91.60
2018-05-11T04:42:14.788Z,90.80
2018-05-11T04:44:43.151Z,90.50
2018-05-11T04:47:10.918Z,90.50
2018-05-11T04:49:38.464Z,90.50
2018-05-11T04:52:06.097Z,90.10
2018-05-11T04:54:33.703Z,90.10
2018-05-11T04:57:01.286Z,89.20
2018-05-11T04:59:28.843Z,88.60
2018-05-11T05:01:56.402Z,89.30
2018-05-11T05:04:23.991Z,88.60
2018-05-11T05:06:52.329Z,87.70
2018-05-11T05:09:19.914Z,87.80
2018-05-11T05:11:47.528Z,87.60
2018-05-11T05:14:15.155Z,87.60
2018-05-11T05:16:42.787Z,87.70
2018-05-11T05:19:10.394Z,87.90
2018-05-11T05:21:37.976Z,87.80
2018-05-11T05:24:05.548Z,87.90
2018-05-11T05:26:33.101Z,87.90
2018-05-11T05:29:00.699Z,87.10
2018-05-11T05:31:28.276Z,86.90
2018-05-11T05:33:56.714Z,86.50
2018-05-11T05:36:24.329Z,86.50
2018-05-11T05:38:51.882Z,86.50
2018-05-11T05:41:20.261Z,84.70
2018-05-11T05:43:48.566Z,84.00
2018-05-11T05:46:16.096Z,84.00
2018-05-11T05:48:44.485Z,84.10
2018-05-11T05:51:12.098Z,84.10
2018-05-11T05:53:40.444Z,84.20
2018-05-11T05:56:08.055Z,84.10
2018-05-11T05:58:35.681Z,83.70
2018-05-11T06:01:03.285Z,84.50
2018-05-11T06:03:31.637Z,84.90
2018-05-11T06:05:59.232Z,84.90
2018-05-11T06:08:26.785Z,84.30
2018-05-11T06:10:55.116Z,85.00
2018-05-11T06:13:22.700Z,85.00
2018-05-11T06:15:50.349Z,85.50
2018-05-11T06:18:17.891Z,85.70
2018-05-11T06:20:45.428Z,84.70
2018-05-11T06:23:12.997Z,84.10
2018-05-11T06:25:40.548Z,84.20
2018-05-11T06:28:08.150Z,84.40
2018-05-11T06:30:35.674Z,83.80
2018-05-11T06:33:03.249Z,84.00
2018-05-11T06:35:30.785Z,83.60
2018-05-11T06:37:58.314Z,82.60
2018-05-11T06:40:25.861Z,83.30
2018-05-11T06:42:53.434Z,82.70
2018-05-11T06:45:21.041Z,81.70
2018-05-11T06:47:48.520Z,79.80
2018-05-11T06:50:16.096Z,79.50
2018-05-11T06:52:43.751Z,79.70
2018-05-11T06:55:11.330Z,80.60
2018-05-11T06:57:38.877Z,79.70
2018-05-11T07:00:06.454Z,80.80
2018-05-11T07:02:34.762Z,80.90
2018-05-11T07:05:02.298Z,80.80
2018-05-11T07:07:30.309Z,79.50
2018-05-11T07:09:57.867Z,78.60
2018-05-11T07:12:25.386Z,78.40
2018-05-11T07:14:52.916Z,76.90
2018-05-11T07:17:21.383Z,77.30
2018-05-11T07:19:48.963Z,77.50
2018-05-11T07:22:16.487Z,76.40
2018-05-11T07:24:44.789Z,76.30
2018-05-11T07:27:12.362Z,76.20
2018-05-11T07:29:40.026Z,75.00
2018-05-11T07:32:07.572Z,75.30
2018-05-11T07:34:35.081Z,73.60
2018-05-11T07:37:02.648Z,71.20
2018-05-11T07:39:30.223Z,72.90
2018-05-11T07:41:57.757Z,73.20
2018-05-11T07:44:26.087Z,72.30
2018-05-11T07:46:53.690Z,72.40
2018-05-11T07:49:21.978Z,68.40
2018-05-11T07:51:49.510Z,68.40
2018-05-11T07:54:17.127Z,70.80
2018-05-11T07:56:44.708Z,70.90
2018-05-11T07:59:12.325Z,73.10
2018-05-11T08:01:40.727Z,67.40
2018-05-11T08:04:08.297Z,67.40
2018-05-11T08:06:35.839Z,66.40
2018-05-11T08:09:03.452Z,68.70
2018-05-11T08:11:31.792Z,68.30
2018-05-11T08:13:59.383Z,68.30
2018-05-11T08:16:26.910Z,64.50
2018-05-11T08:18:54.446Z,65.00
2018-05-11T08:21:21.979Z,63.70
2018-05-11T08:23:50.454Z,61.30
2018-05-11T08:26:18.014Z,61.20
2018-05-11T08:28:46.338Z,60.40
2018-05-11T08:31:13.901Z,60.30
2018-05-11T08:33:41.458Z,61.50
2018-05-11T08:36:09.008Z,61.40
2018-05-11T08:38:36.690Z,61.70
2018-05-11T08:41:04.254Z,63.10
2018-05-11T08:43:33.434Z,62.10
2018-05-11T08:46:01.769Z,62.00
2018-05-11T08:48:29.424Z,61.50
2018-05-11T08:50:57.050Z,62.30
2018-05-11T08:53:24.626Z,62.20
2018-05-11T08:55:52.308Z,62.50
2018-05-11T08:58:19.952Z,63.70
2018-05-11T09:00:47.528Z,61.80
2018-05-11T09:03:15.846Z,59.80
2018-05-11T09:05:43.423Z,59.70
2018-05-11T09:08:11.774Z,61.50
2018-05-11T09:10:40.158Z,62.70
2018-05-11T09:13:07.714Z,62.00
2018-05-11T09:15:35.457Z,59.20
2018-05-11T09:18:03.837Z,58.20
2018-05-11T09:20:31.588Z,58.20
2018-05-11T09:22:59.210Z,58.40
2018-05-11T09:25:26.774Z,58.20
2018-05-11T09:27:54.371Z,59.10
2018-05-11T09:30:21.906Z,57.20
2018-05-11T09:32:49.473Z,57.50
2018-05-11T09:35:17.029Z,57.10
2018-05-11T09:37:44.598Z,58.90
2018-05-11T09:40:12.128Z,59.50
2018-05-11T09:42:39.722Z,57.70
2018-05-11T09:45:07.309Z,57.70
2018-05-11T09:47:34.904Z,57.90
2018-05-11T09:50:02.481Z,57.80
2018-05-11T09:52:30.031Z,57.50
2018-05-11T09:54:59.438Z,56.90
2018-05-11T09:57:27.139Z,57.60
2018-05-11T09:59:54.811Z,57.10
2018-05-11T10:02:22.355Z,57.10
2018-05-11T10:04:49.994Z,56.70
2018-05-11T10:07:17.537Z,56.40
2018-05-11T10:09:45.141Z,54.30
2018-05-11T10:12:13.520Z,54.80
2018-05-11T10:14:41.886Z,54.70
2018-05-11T10:17:09.510Z,54.60
2018-05-11T10:19:37.068Z,55.10
2018-05-11T10:22:04.600Z,57.30
2018-05-11T10:24:32.194Z,54.40
2018-05-11T10:26:59.810Z,54.30
2018-05-11T10:29:28.233Z,55.20
2018-05-11T10:31:55.879Z,55.20
2018-05-11T10:34:23.612Z,52.80
2018-05-11T10:36:51.309Z,55.20
2018-05-11T10:39:19.072Z,54.20
2018-05-11T10:41:47.035Z,53.20
2018-05-11T10:44:14.828Z,53.00
2018-05-11T10:46:48.374Z,51.00
2018-05-11T10:51:48.625Z,52.80
2018-05-11T10:54:28.713Z,51.60
2018-05-11T10:56:56.929Z,50.40
2018-05-11T10:59:26.910Z,51.60
2018-05-11T11:01:55.166Z,51.60
2018-05-11T11:04:22.718Z,51.90
2018-05-11T11:06:50.384Z,50.70
2018-05-11T11:09:26.203Z,53.30
2018-05-11T11:11:54.790Z,53.70
2018-05-11T11:14:23.880Z,52.90
2018-05-11T11:16:52.245Z,50.50
2018-05-11T11:19:19.873Z,50.50
2018-05-11T11:21:48.437Z,53.10
2018-05-11T11:24:15.988Z,53.10
2018-05-11T11:26:43.578Z,51.50
2018-05-11T11:29:11.153Z,51.60
2018-05-11T11:31:38.777Z,49.80
2018-05-11T11:36:46.118Z,50.70
2018-05-11T11:39:13.709Z,49.40
2018-05-11T11:41:41.282Z,51.50
2018-05-11T11:44:08.867Z,50.10
2018-05-11T11:46:36.434Z,49.20
2018-05-11T11:49:04.078Z,48.20
2018-05-11T11:51:31.619Z,49.30
2018-05-11T11:53:59.227Z,49.20
2018-05-11T11:56:26.867Z,49.80
2018-05-11T11:58:54.411Z,49.60
2018-05-11T12:01:22.742Z,48.70
2018-05-11T12:03:50.345Z,48.70
2018-05-11T12:06:18.724Z,49.30
2018-05-11T12:08:47.073Z,48.20
2018-05-11T12:11:14.700Z,48.20
2018-05-11T12:13:42.285Z,51.40
2018-05-11T12:16:09.851Z,50.50
2018-05-11T12:18:38.021Z,49.40
2018-05-11T12:21:05.587Z,51.30
2018-05-11T12:23:33.244Z,50.00
2018-05-11T12:26:00.890Z,52.20
2018-05-11T12:28:28.452Z,51.20
2018-05-11T12:30:56.101Z,49.50
2018-05-11T12:33:23.694Z,52.10
2018-05-11T12:35:51.265Z,50.00
2018-05-11T12:38:18.853Z,53.20
2018-05-11T12:40:46.502Z,51.90
2018-05-11T12:43:14.794Z,50.80
2018-05-11T12:45:43.176Z,50.00
2018-05-11T12:48:10.737Z,49.90
2018-05-11T12:50:39.036Z,50.60
2018-05-11T12:53:10.876Z,50.60
2018-05-11T12:55:38.411Z,52.90
2018-05-11T12:58:05.993Z,51.10
2018-05-11T13:00:33.561Z,51.80
2018-05-11T13:03:01.138Z,52.50
2018-05-11T13:05:29.030Z,53.10
2018-05-11T13:07:56.665Z,52.50
2018-05-11T13:10:24.344Z,52.50
2018-05-11T13:12:52.014Z,53.50
2018-05-11T13:15:20.386Z,52.20
2018-05-11T13:17:47.972Z,52.10
2018-05-11T13:20:15.568Z,50.60
2018-05-11T13:22:43.917Z,52.60
2018-05-11T13:25:11.485Z,52.60
2018-05-11T13:27:39.119Z,51.30
2018-05-11T13:30:06.734Z,53.00
2018-05-11T13:32:34.322Z,52.90
2018-05-11T13:35:01.943Z,51.30
2018-05-11T13:37:30.358Z,54.40
2018-05-11T13:39:57.976Z,54.40
2018-05-11T13:42:26.872Z,52.20
2018-05-11T13:44:54.505Z,52.10
2018-05-11T13:47:22.102Z,52.20
2018-05-11T13:49:50.473Z,53.40
2018-05-11T13:52:18.965Z,53.80
2018-05-11T13:54:47.292Z,52.30
2018-05-11T13:57:14.908Z,52.30
2018-05-11T13:59:42.543Z,50.50
2018-05-11T14:02:10.199Z,52.00
2018-05-11T14:04:37.851Z,52.10
2018-05-11T14:07:05.361Z,51.30
2018-05-11T14:09:32.982Z,52.60
2018-05-11T14:12:00.590Z,53.30
2018-05-11T14:14:28.183Z,52.20
2018-05-11T14:16:55.737Z,52.40
2018-05-11T14:19:23.417Z,52.00
2018-05-11T14:21:51.060Z,51.50
2018-05-11T14:24:18.682Z,52.10
2018-05-11T14:26:46.346Z,52.10
2018-05-11T14:29:13.986Z,52.50
2018-05-11T14:31:42.449Z,54.40
2018-05-11T14:34:10.065Z,54.40
2018-05-11T14:36:37.681Z,52.80
2018-05-11T14:39:05.325Z,52.40
2018-05-11T14:41:33.837Z,53.80
2018-05-11T14:44:01.405Z,55.90
2018-05-11T14:46:29.783Z,50.70
2018-05-11T14:48:58.094Z,51.60
2018-05-11T14:51:25.754Z,51.60
2018-05-11T14:53:53.400Z,52.80
2018-05-11T14:56:20.974Z,52.40
2018-05-11T14:58:48.656Z,51.30
2018-05-11T15:01:16.930Z,52.60
2018-05-11T15:03:45.347Z,52.80
2018-05-11T15:06:13.707Z,51.80
2018-05-11T15:08:41.403Z,51.80
2018-05-11T15:11:09.714Z,54.30
2018-05-11T15:13:37.586Z,54.20
2018-05-11T15:16:05.380Z,53.50
2018-05-11T15:18:33.042Z,52.80
2018-05-11T15:21:00.693Z,53.40
2018-05-11T15:23:28.265Z,52.30
2018-05-11T15:25:55.899Z,54.10
2018-05-11T15:28:23.495Z,51.90
2018-05-11T15:30:51.066Z,51.60
2018-05-11T15:33:19.495Z,50.60
2018-05-11T15:35:47.032Z,50.50
2018-05-11T15:38:14.683Z,51.30
2018-05-11T15:40:43.042Z,52.50
2018-05-11T15:43:11.451Z,52.00
2018-05-11T15:45:39.005Z,52.00
2018-05-11T15:48:06.556Z,51.50
2018-05-11T15:50:34.182Z,52.40
2018-05-11T15:53:01.824Z,51.00
2018-05-11T15:55:29.510Z,51.80
2018-05-11T15:57:57.069Z,50.80
2018-05-11T16:00:24.697Z,52.30
2018-05-11T16:02:53.020Z,52.50
2018-05-11T16:05:20.681Z,52.60
2018-05-11T16:07:48.383Z,52.20
2018-05-11T16:10:15.957Z,53.70
2018-05-11T16:12:43.681Z,52.80
2018-05-11T16:15:11.242Z,53.70
2018-05-11T16:17:38.815Z,51.90
2018-05-11T16:20:06.567Z,52.50
2018-05-11T16:22:34.919Z,52.30
2018-05-11T16:25:02.521Z,52.40
2018-05-11T16:27:30.121Z,53.90
2018-05-11T16:29:57.775Z,52.80
2018-05-11T16:32:25.616Z,52.90
2018-05-11T16:34:53.202Z,52.10
2018-05-11T16:37:21.658Z,52.30
2018-05-11T16:39:49.199Z,50.40
2018-05-11T16:42:16.917Z,51.10
2018-05-11T16:44:44.455Z,50.80
2018-05-11T16:47:12.756Z,52.10
2018-05-11T16:49:42.900Z,52.10
2018-05-11T16:52:10.502Z,51.90
2018-05-11T16:54:38.081Z,53.20
2018-05-11T16:57:05.627Z,51.60
2018-05-11T16:59:33.195Z,51.40
2018-05-11T17:02:00.735Z,51.10
2018-05-11T17:04:28.325Z,52.90
2018-05-11T17:06:55.954Z,53.00
2018-05-11T17:09:23.563Z,53.00
2018-05-11T17:11:51.113Z,53.30
2018-05-11T17:14:18.680Z,53.50
2018-05-11T17:16:46.282Z,51.90
2018-05-11T17:19:13.825Z,53.00
2018-05-11T17:21:42.164Z,53.70
2018-05-11T17:24:10.483Z,53.70
2018-05-11T17:26:38.102Z,52.20
2018-05-11T17:29:06.468Z,51.60
2018-05-11T17:31:34.075Z,54.10
2018-05-11T17:34:01.640Z,52.00
2018-05-11T17:36:30.316Z,51.50
2018-05-11T17:38:57.945Z,54.90
2018-05-11T17:41:25.544Z,52.90
2018-05-11T17:43:53.131Z,53.60
2018-05-11T17:46:21.448Z,53.80
2018-05-11T17:48:48.995Z,53.80
2018-05-11T17:51:16.543Z,54.30
2018-05-11T17:53:44.237Z,54.80
2018-05-11T17:56:11.861Z,53.70
2018-05-11T17:58:39.411Z,53.70
2018-05-11T18:01:07.717Z,54.70
2018-05-11T18:03:35.296Z,54.70
2018-05-11T18:06:03.520Z,55.00
2018-05-11T18:08:31.845Z,55.60
2018-05-11T18:10:59.387Z,55.60
2018-05-11T18:13:27.196Z,56.60
2018-05-11T18:15:54.769Z,56.70
2018-05-11T18:18:22.342Z,57.90
2018-05-11T18:20:49.861Z,58.30
2018-05-11T18:23:19.098Z,59.10
2018-05-11T18:25:47.446Z,59.30
2018-05-11T18:28:15.304Z,59.40
2018-05-11T18:30:42.851Z,59.30
2018-05-11T18:33:10.450Z,59.80
2018-05-11T18:35:38.058Z,60.10
2018-05-11T18:38:05.589Z,60.70
2018-05-11T18:40:33.927Z,61.80
2018-05-11T18:43:02.381Z,61.80
2018-05-11T18:45:29.934Z,62.50
2018-05-11T18:47:57.456Z,63.30
2018-05-11T18:50:26.962Z,65.60
2018-05-11T18:52:54.993Z,65.60
2018-05-11T18:55:22.459Z,65.70
2018-05-11T18:57:49.989Z,66.10
2018-05-11T19:00:17.558Z,67.00
2018-05-11T19:02:45.133Z,66.90
2018-05-11T19:05:12.734Z,66.60
2018-05-11T19:07:41.029Z,67.30
2018-05-11T19:10:08.660Z,67.30
2018-05-11T19:12:37.053Z,68.90
2018-05-11T19:15:05.365Z,68.50
2018-05-11T19:17:32.995Z,68.50
2018-05-11T19:20:01.340Z,69.80
2018-05-11T19:22:28.941Z,69.80
2018-05-11T19:24:56.503Z,70.40
2018-05-11T19:27:24.101Z,70.40
2018-05-11T19:29:51.673Z,70.80
2018-05-11T19:32:20.030Z,71.40
2018-05-11T19:34:47.581Z,71.40
2018-05-11T19:37:15.191Z,71.50
2018-05-11T19:39:42.806Z,71.80
2018-05-11T19:42:10.357Z,72.30
2018-05-11T19:44:37.939Z,72.60
2018-05-11T19:47:05.484Z,73.10
2018-05-11T19:49:33.081Z,72.60
2018-05-11T19:52:00.664Z,72.80
2018-05-11T19:54:29.082Z,72.60
2018-05-11T19:56:56.619Z,72.60
2018-05-11T19:59:25.668Z,73.00
2018-05-11T20:01:53.254Z,73.00
2018-05-11T20:04:21.585Z,74.00
2018-05-11T20:06:49.118Z,73.60
2018-05-11T20:09:17.257Z,73.60
2018-05-11T20:11:45.558Z,73.60
2018-05-11T20:14:13.886Z,73.10
2018-05-11T20:16:41.479Z,73.10
2018-05-11T20:19:09.113Z,73.10
2018-05-11T20:21:36.662Z,73.50
2018-05-11T20:24:04.409Z,73.00
2018-05-11T20:26:31.948Z,73.40
2018-05-11T20:28:59.481Z,73.40
2018-05-11T20:31:27.059Z,73.50
2018-05-11T20:33:54.605Z,74.00
2018-05-11T20:36:22.961Z,74.10
2018-05-11T20:38:50.626Z,74.10
2018-05-11T20:41:18.212Z,74.50
2018-05-11T20:43:46.527Z,75.40
2018-05-11T20:46:14.187Z,75.40
2018-05-11T20:48:41.742Z,75.30
2018-05-11T20:51:09.323Z,75.20
2018-05-11T20:53:36.900Z,75.10
2018-05-11T20:56:04.440Z,75.00
2018-05-11T20:58:32.039Z,74.80
2018-05-11T21:00:59.600Z,75.10
2018-05-11T21:03:28.033Z,75.70
2018-05-11T21:05:55.644Z,75.80
2018-05-11T21:08:24.066Z,76.40
2018-05-11T21:10:52.443Z,76.50
2018-05-11T21:13:20.723Z,77.20
2018-05-11T21:15:48.306Z,77.20
2018-05-11T21:18:15.849Z,77.20
2018-05-11T21:20:43.399Z,76.70
2018-05-11T21:23:10.928Z,75.80
2018-05-11T21:25:39.280Z,77.60
2018-05-11T21:28:06.874Z,77.60
2018-05-11T21:30:35.213Z,78.00
2018-05-11T21:33:02.790Z,78.00
2018-05-11T21:35:30.357Z,77.40
2018-05-11T21:37:57.963Z,77.30
2018-05-11T21:40:25.499Z,77.80
2018-05-11T21:42:53.092Z,78.40
2018-05-11T21:45:23.442Z,79.40
2018-05-11T21:47:51.026Z,79.90
2018-05-11T21:50:18.610Z,79.60
2018-05-11T21:52:46.313Z,79.20
2018-05-11T21:55:13.858Z,79.50
2018-05-11T21:57:42.272Z,79.40
2018-05-11T22:00:09.862Z,79.10
2018-05-11T22:02:37.411Z,79.60
2018-05-11T22:05:05.030Z,79.50
2018-05-11T22:07:32.590Z,79.60
2018-05-11T22:10:00.120Z,80.10
2018-05-11T22:12:27.697Z,80.20
2018-05-11T22:14:55.271Z,80.20
2018-05-11T22:17:22.879Z,81.00
2018-05-11T22:19:51.153Z,81.40
2018-05-11T22:22:19.477Z,80.60
2018-05-11T22:24:47.335Z,80.60
2018-05-11T22:27:14.875Z,80.40
2018-05-11T22:29:42.426Z,80.20
2018-05-11T22:32:09.992Z,80.90
2018-05-11T22:34:37.531Z,80.80
2018-05-11T22:37:05.853Z,80.80
2018-05-11T22:39:33.409Z,80.80
2018-05-11T22:42:01.054Z,80.90
2018-05-11T22:44:28.537Z,81.60
2018-05-11T22:46:56.078Z,81.80
2018-05-11T22:49:23.875Z,81.80
2018-05-11T22:51:51.437Z,81.10
2018-05-11T22:54:19.962Z,81.90
2018-05-11T22:56:48.253Z,82.70
2018-05-11T22:59:15.845Z,82.70
2018-05-11T23:01:43.413Z,82.70
2018-05-11T23:04:11.048Z,82.80
2018-05-11T23:06:38.658Z,82.90
2018-05-11T23:09:06.198Z,82.80
2018-05-11T23:11:33.771Z,82.30
2018-05-11T23:14:01.375Z,82.50
2018-05-11T23:16:28.985Z,82.80
2018-05-11T23:18:56.531Z,82.80
2018-05-11T23:21:24.100Z,83.00
2018-05-11T23:23:51.645Z,83.00
2018-05-11T23:26:19.185Z,82.80
2018-05-11T23:28:46.742Z,83.00
2018-05-11T23:31:14.263Z,83.10
2018-05-11T23:33:42.585Z,83.60
2018-05-11T23:36:10.117Z,83.60
2018-05-11T23:38:38.433Z,83.40
2018-05-11T23:41:05.985Z,83.40
2018-05-11T23:43:33.594Z,83.80
2018-05-11T23:46:01.130Z,83.20
2018-05-11T23:48:29.260Z,83.80
2018-05-11T23:50:57.572Z,83.80
2018-05-11T23:53:25.130Z,83.80
2018-05-11T23:55:52.952Z,84.50
2018-05-11T23:58:20.523Z,84.60
